Time;durP1;ratioP1;P1;durP2;ratioP2;P2;SDS_P1;SDS_P2;PMS_P1;PMS_P2;Temp;Humidity;BMP_temperature;BMP_pressure;BME280_temperature;BME280_humidity;BME280_pressure;Samples;Min_cycle;Max_cycle;Signal;HPM_P1;HPM_P2
2022/05/11 00:02:23;;;;;;;;;;;;;;;-140.72;100.00;52374.63;5073130;28;19916;-69
2022/05/11 00:04:48;;;;;;;;;;;;;;;-140.72;100.00;52378.69;5072893;28;19917;-70
2022/05/11 00:07:13;;;;;;;;;;;;;;;-140.72;100.00;52346.22;5071508;28;19916;-70
2022/05/11 00:09:38;;;;;;;;;;;;;;;-140.72;100.00;52380.72;5071259;28;19924;-69
2022/05/11 00:12:04;;;;;;;;;;;;;;;-140.72;100.00;52374.63;5070895;28;19940;-69
2022/05/11 00:14:29;;;;;;;;;;;;;;;-140.72;100.00;52366.50;5071412;28;19973;-69
2022/05/11 00:16:56;;;;;;;;;;;;;;;-140.72;100.00;52360.44;5071875;28;19932;-69
2022/05/11 00:19:22;;;;;;;;;;;;;;;-140.72;100.00;52370.56;5071752;28;19916;-69
2022/05/11 00:21:47;;;;;;;;;;;;;;;-140.72;100.00;52378.69;5074617;28;19916;-69
2022/05/11 00:24:12;;;;;;;;;;;;;;;-140.72;100.00;52378.69;5078499;28;19955;-69
2022/05/11 00:26:37;;;;;;;;;;;;;;;-140.72;100.00;52407.09;5078621;28;19944;-69
2022/05/11 00:29:02;;;;;;;;;;;;;;;-140.72;100.00;52378.69;5076281;28;19970;-69
2022/05/11 00:31:28;;;;;;;;;;;;;;;-140.72;100.00;52378.69;5075764;28;19916;-69
2022/05/11 00:33:53;;;;;;;;;;;;;;;-140.72;100.00;52415.22;5076785;28;19978;-69
2022/05/11 00:36:18;;;;;;;;;;;;;;;-140.72;100.00;52370.56;5076630;28;19916;-70
2022/05/11 00:38:45;;;;;;;;;;;;;;;-140.72;100.00;52388.84;5076473;28;19916;-69
2022/05/11 00:41:10;;;;;;;;;;;;;;;-140.72;100.00;52352.31;5076931;28;19928;-69
2022/05/11 00:43:38;;;;;;;;;;;;;;;-140.72;100.00;52390.84;5113049;28;19924;-69
2022/05/11 00:46:09;;;;;;;;;;;;;;;-140.72;100.00;52390.84;5115472;28;19923;-67
2022/05/11 00:51:18;;;;;;;;;;;;;;;-140.72;100.00;52425.34;5117734;28;19966;-69
2022/05/11 00:53:46;;;;;;;;;;;;;;;-140.72;100.00;52394.91;5116865;28;19955;-69
2022/05/11 00:56:12;;;;;;;;;;;;;;;-140.72;100.00;52390.84;5115767;28;20386;-69
2022/05/11 00:58:40;;;;;;;;;;;;;;;-140.72;100.00;52374.63;5116934;28;19916;-69
2022/05/11 01:01:05;;;;;;;;;;;;;;;-140.72;100.00;52362.44;5116584;28;20248;-69
2022/05/11 01:03:34;;;;;;;;;;;;;;;-140.72;100.00;52378.69;5115488;28;19920;-69
2022/05/11 01:05:59;;;;;;;;;;;;;;;-140.72;100.00;52358.41;5115082;28;20298;-70
2022/05/11 01:08:27;;;;;;;;;;;;;;;-140.72;100.00;52350.28;5115282;28;19916;-69
2022/05/11 01:10:52;;;;;;;;;;;;;;;-140.72;100.00;52394.91;5116759;28;19915;-70
2022/05/11 01:13:18;;;;;;;;;;;;;;;-140.72;100.00;52362.44;5116672;28;19916;-69
2022/05/11 01:15:45;;;;;;;;;;;;;;;-140.72;100.00;52352.31;5116538;28;19927;-70
2022/05/11 01:18:10;;;;;;;;;;;;;;;-140.72;100.00;52380.72;5115081;28;19915;-69
2022/05/11 01:20:37;;;;;;;;;;;;;;;-140.72;100.00;52386.81;5115289;28;20026;-69
2022/05/11 01:23:20;;;;;;;;;;;;;;;-140.72;100.00;52374.63;5116824;28;19916;-70
2022/05/11 01:25:46;;;;;;;;;;;;;;;-140.72;100.00;52362.44;5115172;28;19923;-70
2022/05/11 01:28:14;;;;;;;;;;;;;;;-140.72;100.00;52360.44;5115160;28;19915;-69
2022/05/11 01:30:40;;;;;;;;;;;;;;;-140.72;100.00;52390.84;5116338;28;19927;-70
2022/05/11 01:33:06;;;;;;;;;;;;;;;-140.72;100.00;52350.28;5116140;28;19916;-70
2022/05/11 01:35:51;;;;;;;;;;;;;;;-140.72;100.00;52374.63;5116133;28;19919;-70
2022/05/11 01:38:19;;;;;;;;;;;;;;;-140.72;100.00;52384.78;5115947;28;20009;-67
2022/05/11 01:40:44;;;;;;;;;;;;;;;-140.72;100.00;52407.09;5114596;28;19977;-68
2022/05/11 01:43:18;;;;;;;;;;;;;;;-140.72;100.00;52362.44;5099589;28;19920;-67
2022/05/11 01:45:43;;;;;;;;;;;;;;;-140.72;100.00;52368.53;5094326;28;19932;-68
2022/05/11 01:48:09;;;;;;;;;;;;;;;-140.72;100.00;52374.63;5095557;28;19938;-67
2022/05/11 01:50:34;;;;;;;;;;;;;;;-140.72;100.00;52384.78;5094224;28;19916;-70
2022/05/11 01:53:00;;;;;;;;;;;;;;;-140.72;100.00;52382.75;5095592;28;19926;-67
2022/05/11 01:55:25;;;;;;;;;;;;;;;-140.72;100.00;52390.84;5094078;28;19969;-68
2022/05/11 01:57:51;;;;;;;;;;;;;;;-140.72;100.00;52376.66;5094084;28;19985;-67
2022/05/11 02:00:16;;;;;;;;;;;;;;;-140.72;100.00;52368.53;5094104;28;20008;-68
2022/05/11 02:03:17;;;;;;;;;;;;;;;-140.72;100.00;52394.91;5095502;28;19928;-68
2022/05/11 02:08:55;;;;;;;;;;;;;;;-140.72;100.00;52360.44;5096089;28;19923;-68
2022/05/11 02:11:21;;;;;;;;;;;;;;;-140.72;100.00;52374.63;5095898;28;19916;-69
2022/05/11 02:13:46;;;;;;;;;;;;;;;-140.72;100.00;52382.75;5095608;28;20018;-69
2022/05/11 02:16:12;;;;;;;;;;;;;;;-140.72;100.00;52366.50;5094249;28;19974;-69
2022/05/11 02:18:38;;;;;;;;;;;;;;;-140.72;100.00;52362.44;5094191;28;19923;-69
2022/05/11 02:21:03;;;;;;;;;;;;;;;-140.72;100.00;52370.56;5093940;28;19916;-69
2022/05/11 02:23:28;;;;;;;;;;;;;;;-140.72;100.00;52360.44;5095101;28;19936;-68
2022/05/11 02:25:54;;;;;;;;;;;;;;;-140.72;100.00;52356.38;5094128;28;20061;-69
2022/05/11 02:28:21;;;;;;;;;;;;;;;-140.72;100.00;52358.41;5093873;28;19920;-69
2022/05/11 02:30:47;;;;;;;;;;;;;;;-140.72;100.00;52350.28;5093783;28;20279;-69
2022/05/11 02:46:23;;;;;;;;;;;;;;;-140.72;100.00;52366.50;4981529;28;19970;-72
2022/05/11 02:48:48;;;;;;;;;;;;;;;-140.72;100.00;52376.66;4977523;28;20350;-72
2022/05/11 02:51:14;;;;;;;;;;;;;;;-140.72;100.00;52342.16;4995327;28;20005;-72
2022/05/11 02:53:39;;;;;;;;;;;;;;;-140.72;100.00;52386.81;4986453;28;20033;-72
2022/05/11 02:56:04;;;;;;;;;;;;;;;-140.72;100.00;52386.81;4974829;28;20468;-72
2022/05/11 02:58:32;;;;;;;;;;;;;;;-140.72;100.00;52366.50;4974881;28;19925;-72
2022/05/11 03:00:58;;;;;;;;;;;;;;;-140.72;100.00;52378.69;4957657;28;19923;-72
2022/05/11 03:03:23;;;;;;;;;;;;;;;-140.72;100.00;52390.84;4974828;28;19918;-72
2022/05/11 03:05:52;;;;;;;;;;;;;;;-140.72;100.00;52409.13;4975069;28;20397;-72
2022/05/11 03:08:17;;;;;;;;;;;;;;;-140.72;100.00;52407.09;4975606;28;19934;-72
2022/05/11 03:10:44;;;;;;;;;;;;;;;-140.72;100.00;52384.78;4975089;28;20056;-72
2022/05/11 03:13:10;;;;;;;;;;;;;;;-140.72;100.00;52413.19;4975391;28;19918;-72
2022/05/11 03:15:35;;;;;;;;;;;;;;;-140.72;100.00;52388.84;4975243;28;19940;-72
2022/05/11 03:18:00;;;;;;;;;;;;;;;-140.72;100.00;52407.09;4973243;28;19922;-72
2022/05/11 03:20:26;;;;;;;;;;;;;;;-140.72;100.00;52358.41;4974753;28;19925;-72
2022/05/11 03:22:52;;;;;;;;;;;;;;;-140.72;100.00;52394.91;4974671;28;19969;-72
2022/05/11 03:25:17;;;;;;;;;;;;;;;-140.72;100.00;52372.59;4973231;28;19922;-72
2022/05/11 03:27:42;;;;;;;;;;;;;;;-140.72;100.00;52370.56;4974214;28;19918;-72
2022/05/11 03:30:08;;;;;;;;;;;;;;;-140.72;100.00;52392.88;4973271;28;20362;-72
2022/05/11 03:35:17;;;;;;;;;;;;;;;-140.72;100.00;52368.53;4975312;28;20423;-72
2022/05/11 03:37:42;;;;;;;;;;;;;;;-140.72;100.00;52364.47;4974868;28;19918;-72
2022/05/11 03:40:09;;;;;;;;;;;;;;;-140.72;100.00;52366.50;4974539;28;20384;-72
2022/05/11 03:42:35;;;;;;;;;;;;;;;-140.72;100.00;52409.13;4989312;28;20013;-73
2022/05/11 03:45:17;;;;;;;;;;;;;;;-140.72;100.00;52362.44;4973496;28;19922;-73
2022/05/11 03:47:43;;;;;;;;;;;;;;;-140.72;100.00;52380.72;4974831;28;19918;-72
2022/05/11 03:50:09;;;;;;;;;;;;;;;-140.72;100.00;52384.78;4974700;28;20396;-73
2022/05/11 03:52:35;;;;;;;;;;;;;;;-140.72;100.00;52380.72;4974757;28;20431;-72
2022/05/11 03:55:00;;;;;;;;;;;;;;;-140.72;100.00;52358.41;4972720;28;20269;-72
2022/05/11 03:57:25;;;;;;;;;;;;;;;-140.72;100.00;52411.16;4973498;28;19989;-72
2022/05/11 03:59:50;;;;;;;;;;;;;;;-140.72;100.00;52336.06;4973599;28;20016;-73
2022/05/11 04:02:16;;;;;;;;;;;;;;;-140.72;100.00;52396.94;4973831;28;19918;-72
2022/05/11 04:04:41;;;;;;;;;;;;;;;-140.72;100.00;52372.59;4973917;28;19918;-72
2022/05/11 04:07:06;;;;;;;;;;;;;;;-140.72;100.00;52364.47;4973744;28;19927;-72
2022/05/11 04:09:32;;;;;;;;;;;;;;;-140.72;100.00;52386.81;4974344;28;19961;-72
2022/05/11 04:11:57;;;;;;;;;;;;;;;-140.72;100.00;52405.06;4973866;28;19929;-72
2022/05/11 04:14:22;;;;;;;;;;;;;;;-140.72;100.00;52384.78;4975249;28;19918;-74
2022/05/11 04:16:53;;;;;;;;;;;;;;;-140.72;100.00;52384.78;4976264;28;20339;-71
2022/05/11 04:19:18;;;;;;;;;;;;;;;-140.72;100.00;52380.72;4976687;28;19953;-72
2022/05/11 04:21:43;;;;;;;;;;;;;;;-140.72;100.00;52364.47;4978104;28;19919;-72
2022/05/11 04:24:09;;;;;;;;;;;;;;;-140.72;100.00;52378.69;4978262;28;19918;-72
2022/05/11 04:26:35;;;;;;;;;;;;;;;-140.72;100.00;52419.28;4978535;28;19919;-72
2022/05/11 04:29:00;;;;;;;;;;;;;;;-140.72;100.00;52401.00;4979094;28;20024;-72
2022/05/11 04:31:25;;;;;;;;;;;;;;;-140.72;100.00;52378.69;4995041;28;20297;-72
2022/05/11 04:33:50;;;;;;;;;;;;;;;-140.72;100.00;52362.44;4994760;28;19933;-71
2022/05/11 04:36:16;;;;;;;;;;;;;;;-140.72;100.00;52358.41;4990943;28;19926;-72
2022/05/11 04:38:41;;;;;;;;;;;;;;;-140.72;100.00;52401.00;4967494;28;19930;-72
2022/05/11 04:41:07;;;;;;;;;;;;;;;-140.72;100.00;52360.44;4969401;28;19926;-72
2022/05/11 04:43:33;;;;;;;;;;;;;;;-140.72;100.00;52403.03;4974772;28;19918;-73
2022/05/11 04:45:58;;;;;;;;;;;;;;;-140.72;100.00;52396.94;4974679;28;20009;-72
2022/05/11 04:48:24;;;;;;;;;;;;;;;-140.72;100.00;52409.13;4989491;28;20333;-71
2022/05/11 04:50:49;;;;;;;;;;;;;;;-140.72;100.00;52356.38;4975313;28;19918;-73
2022/05/11 04:53:15;;;;;;;;;;;;;;;-140.72;100.00;52403.03;4973722;28;19918;-72
2022/05/11 04:55:41;;;;;;;;;;;;;;;-140.72;100.00;52338.09;4973852;28;19929;-72
2022/05/11 04:58:06;;;;;;;;;;;;;;;-140.72;100.00;52350.28;4965330;28;20012;-71
2022/05/11 05:00:32;;;;;;;;;;;;;;;-140.72;100.00;52380.72;4982387;28;19974;-71
2022/05/11 05:02:58;;;;;;;;;;;;;;;-140.72;100.00;52370.56;4971505;28;19948;-72
2022/05/11 05:05:23;;;;;;;;;;;;;;;-140.72;100.00;52374.63;4972801;28;19945;-73
2022/05/11 05:07:48;;;;;;;;;;;;;;;-140.72;100.00;52382.75;4971319;28;20064;-73
2022/05/11 05:10:15;;;;;;;;;;;;;;;-140.72;100.00;52372.59;4975091;28;19941;-73
2022/05/11 05:12:40;;;;;;;;;;;;;;;-140.72;100.00;52398.97;4958240;28;19926;-72
2022/05/11 05:15:07;;;;;;;;;;;;;;;-140.72;100.00;52376.66;4971971;28;19918;-72
2022/05/11 05:17:32;;;;;;;;;;;;;;;-140.72;100.00;52390.84;4993096;28;19918;-73
2022/05/11 05:19:57;;;;;;;;;;;;;;;-140.72;100.00;52350.28;4992684;28;20325;-73
2022/05/11 05:22:22;;;;;;;;;;;;;;;-140.72;100.00;52358.41;4977492;28;20020;-72
2022/05/11 05:24:48;;;;;;;;;;;;;;;-140.72;100.00;52366.50;4993759;28;19919;-72
2022/05/11 05:27:15;;;;;;;;;;;;;;;-140.72;100.00;52370.56;4978788;28;19919;-72
2022/05/11 05:32:24;;;;;;;;;;;;;;;-140.72;100.00;52376.66;4995653;28;19929;-72
2022/05/11 05:34:49;;;;;;;;;;;;;;;-140.72;100.00;52366.50;4979710;28;19954;-73
2022/05/11 05:37:16;;;;;;;;;;;;;;;-140.72;100.00;52354.34;4982236;28;20307;-72
2022/05/11 05:39:41;;;;;;;;;;;;;;;-140.72;100.00;52411.16;4978383;28;20000;-73
2022/05/11 05:42:06;;;;;;;;;;;;;;;-140.72;100.00;52372.59;4977813;28;19994;-73
2022/05/11 05:44:32;;;;;;;;;;;;;;;-140.72;100.00;52370.56;4977715;28;19922;-73
2022/05/11 05:47:04;;;;;;;;;;;;;;;-140.72;100.00;52411.16;4977698;28;19929;-72
2022/05/11 05:49:30;;;;;;;;;;;;;;;-140.72;100.00;52358.41;4977805;28;19928;-72
2022/05/11 05:51:56;;;;;;;;;;;;;;;-140.72;100.00;52392.88;4977307;28;20318;-73
2022/05/11 05:54:21;;;;;;;;;;;;;;;-140.72;100.00;52368.53;4992712;28;19992;-72
2022/05/11 05:56:46;;;;;;;;;;;;;;;-140.72;100.00;52364.47;4989893;28;19962;-72
2022/05/11 05:59:14;;;;;;;;;;;;;;;-140.72;100.00;52325.94;4974806;28;19922;-73
2022/05/11 06:01:39;;;;;;;;;;;;;;;-140.72;100.00;52330.00;4979527;28;20005;-72
2022/05/11 06:04:05;;;;;;;;;;;;;;;-140.72;100.00;52374.63;4966444;28;19969;-76
2022/05/11 06:06:30;;;;;;;;;;;;;;;-140.72;100.00;52313.75;4972593;28;19918;-75
2022/05/11 06:08:55;;;;;;;;;;;;;;;-140.72;100.00;52305.63;4978297;28;19918;-71
2022/05/11 06:11:20;;;;;;;;;;;;;;;-140.72;100.00;52313.75;4977592;28;19941;-73
2022/05/11 06:13:46;;;;;;;;;;;;;;;-140.72;100.00;52354.34;4977552;28;19937;-73
2022/05/11 06:16:13;;;;;;;;;;;;;;;-140.72;100.00;52354.34;4977524;28;20270;-71
2022/05/11 06:18:41;;;;;;;;;;;;;;;-140.72;100.00;52327.97;4985218;28;19950;-73
2022/05/11 06:21:07;;;;;;;;;;;;;;;-140.72;100.00;52293.47;4975550;28;20008;-73
2022/05/11 06:23:32;;;;;;;;;;;;;;;-140.72;100.00;52313.75;4977560;28;20393;-73
2022/05/11 06:25:57;;;;;;;;;;;;;;;-140.72;100.00;52346.22;4975786;28;19926;-73
2022/05/11 06:28:22;;;;;;;;;;;;;;;-140.72;100.00;52346.22;4976607;28;19926;-73
2022/05/11 06:30:48;;;;;;;;;;;;;;;-140.72;100.00;52344.19;4984334;28;19930;-74
2022/05/11 06:33:13;;;;;;;;;;;;;;;-140.72;100.00;52305.63;4970641;28;19922;-72
2022/05/11 06:35:38;;;;;;;;;;;;;;;-140.72;100.00;52364.47;4975208;28;19929;-71
2022/05/11 06:38:05;;;;;;;;;;;;;;;-140.72;100.00;52342.16;4979476;28;20261;-74
2022/05/11 06:40:31;;;;;;;;;;;;;;;-140.72;100.00;52332.03;4975730;28;20016;-72
2022/05/11 06:42:56;;;;;;;;;;;;;;;-140.72;100.00;52350.28;4978022;28;19953;-73
2022/05/11 06:45:23;;;;;;;;;;;;;;;-140.72;100.00;52342.16;4976769;28;19922;-73
2022/05/11 06:47:49;;;;;;;;;;;;;;;-140.72;100.00;52327.97;4975548;28;19969;-73
2022/05/11 06:50:14;;;;;;;;;;;;;;;-140.72;100.00;52311.72;4977196;28;20019;-72
2022/05/11 06:52:40;;;;;;;;;;;;;;;-140.72;100.00;52319.84;4972468;28;19925;-78
2022/05/11 07:01:27;;;;;;;;;;;;;;;-140.72;100.00;52317.81;4975249;28;20001;-72
2022/05/11 07:03:52;;;;;;;;;;;;;;;-140.72;100.00;52340.13;4972384;28;20385;-72
2022/05/11 07:06:17;;;;;;;;;;;;;;;-140.72;100.00;52287.38;4974580;28;19937;-73
2022/05/11 07:08:44;;;;;;;;;;;;;;;-140.72;100.00;52317.81;4974590;28;20009;-70
2022/05/11 07:13:55;;;;;;;;;;;;;;;-140.72;100.00;52291.44;4970474;28;20020;-71
2022/05/11 07:16:23;;;;;;;;;;;;;;;-140.72;100.00;52301.59;4973224;28;20313;-70
2022/05/11 07:18:49;;;;;;;;;;;;;;;-140.72;100.00;52311.72;4974728;28;20493;-70
2022/05/11 07:21:14;;;;;;;;;;;;;;;-140.72;100.00;52313.75;4974461;28;19918;-70
2022/05/11 07:23:39;;;;;;;;;;;;;;;-140.72;100.00;52287.38;4989204;28;19918;-70
2022/05/11 07:26:04;;;;;;;;;;;;;;;-140.72;100.00;52293.47;4990028;28;19967;-71
2022/05/11 07:28:30;;;;;;;;;;;;;;;-140.72;100.00;52327.97;4971672;28;20017;-71
2022/05/11 07:30:55;;;;;;;;;;;;;;;-140.72;100.00;52309.69;4971394;28;20317;-72
2022/05/11 07:33:21;;;;;;;;;;;;;;;-140.72;100.00;52309.69;4973202;28;19989;-72
2022/05/11 07:35:46;;;;;;;;;;;;;;;-140.72;100.00;52325.94;4973881;28;20013;-72
2022/05/11 07:38:13;;;;;;;;;;;;;;;-140.72;100.00;52319.84;4989119;28;19977;-71
2022/05/11 07:40:38;;;;;;;;;;;;;;;-140.72;100.00;52330.00;4973646;28;20010;-71
2022/05/11 07:43:03;;;;;;;;;;;;;;;-140.72;100.00;52338.09;4972813;28;20393;-71
2022/05/11 07:45:29;;;;;;;;;;;;;;;-140.72;100.00;52325.94;4972131;28;19923;-71
2022/05/11 07:47:54;;;;;;;;;;;;;;;-140.72;100.00;52295.50;4972350;28;19918;-71
2022/05/11 07:50:19;;;;;;;;;;;;;;;-140.72;100.00;52311.72;4973559;28;20707;-71
2022/05/11 07:52:46;;;;;;;;;;;;;;;-140.72;100.00;52303.59;4973372;28;19965;-71
2022/05/11 07:55:11;;;;;;;;;;;;;;;-140.72;100.00;52293.47;4973692;28;19918;-71
2022/05/11 08:00:21;;;;;;;;;;;;;;;-140.72;100.00;52309.69;4972827;28;20378;-71
2022/05/11 08:02:46;;;;;;;;;;;;;;;-140.72;100.00;52279.25;4973169;28;20044;-71
2022/05/11 08:05:12;;;;;;;;;;;;;;;-140.72;100.00;52252.88;4971677;28;19945;-71
2022/05/11 08:07:42;;;;;;;;;;;;;;;-140.72;100.00;52281.28;4972586;28;20012;-72
2022/05/11 08:10:10;;;;;;;;;;;;;;;-140.72;100.00;52273.19;4974123;28;20266;-72
2022/05/11 08:12:35;;;;;;;;;;;;;;;-140.72;100.00;52248.81;4971176;28;19929;-73
2022/05/11 08:15:00;;;;;;;;;;;;;;;-140.72;100.00;52289.41;4989059;28;19926;-73
2022/05/11 08:17:30;;;;;;;;;;;;;;;-140.72;100.00;52287.38;4973027;28;19926;-72
2022/05/11 08:19:56;;;;;;;;;;;;;;;-140.72;100.00;52230.56;4974165;28;19918;-73
2022/05/11 08:22:21;;;;;;;;;;;;;;;-140.72;100.00;52250.84;4975042;28;19938;-73
2022/05/11 08:24:47;;;;;;;;;;;;;;;-140.72;100.00;52283.31;4983166;28;19937;-73
2022/05/11 08:27:15;;;;;;;;;;;;;;;-140.72;100.00;52244.78;4989688;28;20028;-73
2022/05/11 08:35:08;;;;;;;;;;;;;;;-140.72;100.00;52210.28;4973100;28;19993;-72
2022/05/11 08:37:33;;;;;;;;;;;;;;;-140.72;100.00;52240.72;4976802;28;19918;-72
2022/05/11 08:39:59;;;;;;;;;;;;;;;-140.72;100.00;52261.00;4973745;28;19930;-72
2022/05/11 08:42:25;;;;;;;;;;;;;;;-140.72;100.00;52212.31;4989284;28;19942;-72
2022/05/11 08:44:50;;;;;;;;;;;;;;;-140.72;100.00;52206.22;4979410;28;19933;-72
2022/05/11 08:47:25;;;;;;;;;;;;;;;-140.72;100.00;52183.91;4995187;28;20005;-73
2022/05/11 08:49:50;;;;;;;;;;;;;;;-140.72;100.00;52187.97;4981346;28;19980;-73
2022/05/11 08:52:18;;;;;;;;;;;;;;;-140.72;100.00;52194.03;4976554;28;19933;-73
2022/05/11 08:54:47;;;;;;;;;;;;;;;-140.72;100.00;52179.84;4980846;28;19918;-73
2022/05/11 08:57:17;;;;;;;;;;;;;;;-140.72;100.00;52141.28;4981373;28;19953;-72
2022/05/11 08:59:44;;;;;;;;;;;;;;;-140.72;100.00;52177.81;4977643;28;19923;-73
2022/05/11 09:02:16;;;;;;;;;;;;;;;-140.72;100.00;52187.97;4979780;28;19918;-73
2022/05/11 09:04:49;;;;;;;;;;;;;;;-140.72;100.00;52163.59;4976968;28;19926;-73
2022/05/11 09:07:14;;;;;;;;;;;;;;;-140.72;100.00;52192.00;4976457;28;20029;-72
2022/05/11 09:09:40;;;;;;;;;;;;;;;-140.72;100.00;52074.34;4975004;28;20401;-73
2022/05/11 09:12:06;;;;;;;;;;;;;;;-140.72;100.00;52088.53;4978735;28;19930;-73
2022/05/11 09:14:41;;;;;;;;;;;;;;;-140.72;100.00;52112.88;4974173;28;20329;-73
2022/05/11 09:17:20;;;;;;;;;;;;;;;-140.72;100.00;52082.44;4974210;28;19922;-73
2022/05/11 09:19:46;;;;;;;;;;;;;;;-140.72;100.00;52098.69;4975316;28;19962;-73
2022/05/11 09:22:17;;;;;;;;;;;;;;;-140.72;100.00;52106.78;4976336;28;19922;-73
2022/05/11 09:24:50;;;;;;;;;;;;;;;-140.72;100.00;52100.72;4989675;28;19930;-73
2022/05/11 09:27:32;;;;;;;;;;;;;;;-140.72;100.00;52078.38;4976462;28;19984;-73
2022/05/11 09:30:04;;;;;;;;;;;;;;;-140.72;100.00;52137.22;4989765;28;19926;-73
2022/05/11 09:32:36;;;;;;;;;;;;;;;-140.72;100.00;52110.84;4972332;28;19933;-73
2022/05/11 09:35:14;;;;;;;;;;;;;;;-140.72;100.00;52094.63;4976800;28;19965;-74
2022/05/11 09:37:42;;;;;;;;;;;;;;;-140.72;100.00;52031.72;4974848;28;19922;-73
2022/05/11 09:40:21;;;;;;;;;;;;;;;-140.72;100.00;52161.56;4977491;28;19968;-73
2022/05/11 09:42:58;;;;;;;;;;;;;;;-140.72;100.00;52114.91;4974364;28;20028;-73
2022/05/11 09:45:36;;;;;;;;;;;;;;;-140.72;100.00;52131.16;4976950;28;20010;-72
2022/05/11 09:48:12;;;;;;;;;;;;;;;-140.72;100.00;52096.66;4974067;28;19972;-72
2022/05/11 09:50:38;;;;;;;;;;;;;;;-140.72;100.00;52082.44;4974352;28;19976;-72
2022/05/11 09:53:19;;;;;;;;;;;;;;;-140.72;100.00;52102.75;4970208;28;19953;-72
2022/05/11 09:55:44;;;;;;;;;;;;;;;-140.72;100.00;52019.56;4988914;28;20301;-72
2022/05/11 09:58:09;;;;;;;;;;;;;;;-140.72;100.00;52062.16;4976546;28;20015;-72
2022/05/11 10:00:36;;;;;;;;;;;;;;;-140.72;100.00;52019.56;4978139;28;19998;-72
2022/05/11 10:03:06;;;;;;;;;;;;;;;-140.72;100.00;51989.13;4977506;28;19922;-72
2022/05/11 10:05:39;;;;;;;;;;;;;;;-140.72;100.00;51970.84;4977824;28;19965;-71
2022/05/11 10:08:23;;;;;;;;;;;;;;;-140.72;100.00;51956.66;4975296;28;19922;-72
2022/05/11 10:10:52;;;;;;;;;;;;;;;-140.72;100.00;52007.38;4974493;28;20012;-72
2022/05/11 10:13:20;;;;;;;;;;;;;;;-140.72;100.00;51944.47;4971743;28;19949;-72
2022/05/11 10:24:15;;;;;;;;;;;;;;;-140.72;100.00;51928.25;4957408;29;20234;-70
2022/05/11 10:26:46;;;;;;;;;;;;;;;-140.72;100.00;51962.75;4957249;28;19918;-70
2022/05/11 10:29:22;;;;;;;;;;;;;;;-140.72;100.00;51924.19;4957632;28;20017;-70
2022/05/11 10:32:09;;;;;;;;;;;;;;;-140.72;100.00;51944.47;4957545;28;20033;-70
2022/05/11 10:34:47;;;;;;;;;;;;;;;-140.72;100.00;51952.59;4962295;28;20013;-69
2022/05/11 10:37:19;;;;;;;;;;;;;;;-140.72;100.00;52011.44;4975807;28;20097;-70
2022/05/11 10:40:15;;;;;;;;;;;;;;;-140.72;100.00;51950.56;4958014;29;19922;-70
2022/05/11 10:42:44;;;;;;;;;;;;;;;-140.72;100.00;51970.84;4958748;28;19942;-70
2022/05/11 10:45:14;;;;;;;;;;;;;;;-140.72;100.00;52041.88;4958253;28;19923;-69
2022/05/11 10:47:43;;;;;;;;;;;;;;;-140.72;100.00;51981.00;4958413;28;20355;-70
2022/05/11 10:50:23;;;;;;;;;;;;;;;-140.72;100.00;51981.00;4958360;28;19950;-71
2022/05/11 10:52:59;;;;;;;;;;;;;;;-140.72;100.00;51869.41;4980096;28;20017;-72
2022/05/11 10:55:42;;;;;;;;;;;;;;;-140.72;100.00;51802.47;5011104;28;20251;-69
2022/05/11 10:58:26;;;;;;;;;;;;;;;-140.72;100.00;51826.81;4997074;28;19926;-72
2022/05/11 11:00:53;;;;;;;;;;;;;;;-140.72;100.00;51871.44;4996390;28;19922;-71
2022/05/11 11:03:34;;;;;;;;;;;;;;;-140.72;100.00;51901.88;4996277;28;19926;-71
2022/05/11 11:09:09;;;;;;;;;;;;;;;-140.72;100.00;51883.63;4974161;28;20295;-71
2022/05/11 11:11:43;;;;;;;;;;;;;;;-140.72;100.00;51875.50;4996555;28;20296;-71
2022/05/11 11:14:10;;;;;;;;;;;;;;;-140.72;100.00;51869.41;4996105;28;19989;-71
2022/05/11 11:16:38;;;;;;;;;;;;;;;-140.72;100.00;51853.19;4995867;28;19952;-71
2022/05/11 11:19:08;;;;;;;;;;;;;;;-140.72;100.00;51853.19;4994975;28;19921;-71
2022/05/11 11:21:34;;;;;;;;;;;;;;;-140.72;100.00;51869.41;4994918;28;19917;-71
2022/05/11 11:24:09;;;;;;;;;;;;;;;-140.72;100.00;51885.66;4993114;28;19929;-71
2022/05/11 11:26:53;;;;;;;;;;;;;;;-140.72;100.00;51830.88;4995406;28;20297;-72
2022/05/11 11:29:26;;;;;;;;;;;;;;;-140.72;100.00;51816.66;4995292;28;20008;-71
2022/05/11 11:32:00;;;;;;;;;;;;;;;-140.72;100.00;51865.34;4995255;28;20005;-71
2022/05/11 11:34:28;;;;;;;;;;;;;;;-140.72;100.00;51883.63;4995608;28;19984;-71
2022/05/11 11:36:53;;;;;;;;;;;;;;;-140.72;100.00;51863.31;4994451;28;19922;-71
2022/05/11 11:39:37;;;;;;;;;;;;;;;-140.72;100.00;51790.28;4996005;28;20333;-71
2022/05/11 11:42:05;;;;;;;;;;;;;;;-140.72;100.00;51757.81;4995803;28;20382;-71
2022/05/11 11:44:37;;;;;;;;;;;;;;;-140.72;100.00;51822.75;4994800;28;21477;-71
2022/05/11 11:47:24;;;;;;;;;;;;;;;-140.72;100.00;51798.41;5010184;28;20362;-71
2022/05/11 11:49:49;;;;;;;;;;;;;;;-140.72;100.00;51774.06;4995807;28;19964;-71
2022/05/11 11:52:33;;;;;;;;;;;;;;;-140.72;100.00;51755.81;4996150;28;19917;-71
2022/05/11 11:54:58;;;;;;;;;;;;;;;-140.72;100.00;51725.38;4963234;29;20402;-71
2022/05/11 11:57:23;;;;;;;;;;;;;;;-140.72;100.00;51792.31;4960713;29;19918;-71
2022/05/11 11:59:49;;;;;;;;;;;;;;;-140.72;100.00;51761.88;4974582;28;19985;-71
2022/05/11 12:02:22;;;;;;;;;;;;;;;-140.72;100.00;51725.38;4972712;28;19926;-72
2022/05/11 12:04:54;;;;;;;;;;;;;;;-140.72;100.00;51790.28;4956215;29;20370;-72
2022/05/11 12:15:38;;;;;;;;;;;;;;;-140.72;100.00;51774.06;4956465;29;19969;-71
2022/05/11 12:18:36;;;;;;;;;;;;;;;-140.72;100.00;51786.22;4955694;28;19918;-71
2022/05/11 12:21:03;;;;;;;;;;;;;;;-140.72;100.00;51729.44;4944841;29;19934;-70
2022/05/11 12:23:34;;;;;;;;;;;;;;;-140.72;100.00;51765.94;4955918;29;19931;-70
2022/05/11 12:26:10;;;;;;;;;;;;;;;-140.72;100.00;51806.53;4956230;29;19926;-71
2022/05/11 12:28:41;;;;;;;;;;;;;;;-140.72;100.00;51778.13;4970127;28;19918;-71
2022/05/11 12:31:07;;;;;;;;;;;;;;;-140.72;100.00;51794.34;4955709;29;20354;-71
2022/05/11 12:33:39;;;;;;;;;;;;;;;-140.72;100.00;51796.38;4956252;28;20001;-72
2022/05/11 12:36:04;;;;;;;;;;;;;;;-140.72;100.00;51776.09;4956482;29;20298;-69
2022/05/11 12:38:30;;;;;;;;;;;;;;;-140.72;100.00;51747.69;4958330;29;19928;-70
2022/05/11 12:40:56;;;;;;;;;;;;;;;-140.72;100.00;51834.91;4961718;29;19934;-71
2022/05/11 12:43:31;;;;;;;;;;;;;;;-140.72;100.00;51745.66;4958203;29;19989;-70
2022/05/11 12:45:59;;;;;;;;;;;;;;;-140.72;100.00;51772.03;4954997;29;19923;-72
2022/05/11 12:48:27;;;;;;;;;;;;;;;-140.72;100.00;51784.19;4955856;29;19950;-70
2022/05/11 12:51:06;;;;;;;;;;;;;;;-140.72;100.00;51767.97;4970427;28;19919;-69
2022/05/11 12:53:34;;;;;;;;;;;;;;;-140.72;100.00;51871.44;4973750;28;20048;-71
2022/05/11 12:56:07;;;;;;;;;;;;;;;-140.72;100.00;51828.84;4994935;28;20292;-71
2022/05/11 12:58:34;;;;;;;;;;;;;;;-140.72;100.00;51802.47;4995955;28;19933;-70
2022/05/11 13:01:01;;;;;;;;;;;;;;;-140.72;100.00;51814.63;4994318;28;19965;-70
2022/05/11 13:03:31;;;;;;;;;;;;;;;-140.72;100.00;51845.06;4995112;28;19918;-70
2022/05/11 13:06:05;;;;;;;;;;;;;;;-140.72;100.00;51830.88;4995245;28;19958;-70
2022/05/11 13:08:33;;;;;;;;;;;;;;;-140.72;100.00;51905.94;4994839;28;19925;-70
2022/05/11 13:10:59;;;;;;;;;;;;;;;-140.72;100.00;51910.00;4994753;28;19922;-70
2022/05/11 13:13:27;;;;;;;;;;;;;;;-140.72;100.00;51936.38;4995767;28;20008;-70
2022/05/11 13:16:01;;;;;;;;;;;;;;;-140.72;100.00;51985.06;4993764;28;20227;-70
2022/05/11 13:18:28;;;;;;;;;;;;;;;-140.72;100.00;52001.28;5010177;28;19917;-70
2022/05/11 13:20:55;;;;;;;;;;;;;;;-140.72;100.00;52082.44;4994156;28;19917;-71
2022/05/11 13:23:20;;;;;;;;;;;;;;;-140.72;100.00;51999.25;4994568;28;19922;-71
2022/05/11 13:25:48;;;;;;;;;;;;;;;-140.72;100.00;52033.75;4993871;28;20013;-71